createdAt,value
2019-01-25T00:01:08.793Z,14.60
2019-01-25T00:03:56.550Z,13.40
2019-01-25T00:06:44.578Z,14.07
2019-01-25T00:09:32.456Z,12.93
2019-01-25T00:12:20.417Z,15.07
2019-01-25T00:15:08.755Z,14.40
2019-01-25T00:17:56.548Z,14.87
2019-01-25T00:20:44.767Z,15.80
2019-01-25T00:23:32.829Z,14.70
2019-01-25T00:26:20.568Z,14.17
2019-01-25T00:29:08.646Z,16.73
2019-01-25T00:31:56.812Z,13.60
2019-01-25T00:34:44.444Z,14.63
2019-01-25T00:37:32.174Z,15.80
2019-01-25T00:40:21.042Z,16.53
2019-01-25T00:43:09.430Z,14.23
2019-01-25T00:45:57.670Z,14.40
2019-01-25T00:48:45.506Z,15.07
2019-01-25T00:51:33.690Z,15.13
2019-01-25T00:54:21.961Z,15.40
2019-01-25T00:57:09.889Z,15.60
2019-01-25T00:59:57.819Z,16.50
2019-01-25T01:02:45.926Z,17.37
2019-01-25T01:05:34.134Z,16.57
2019-01-25T01:08:22.328Z,16.43
2019-01-25T01:11:10.546Z,15.67
2019-01-25T01:13:58.501Z,16.13
2019-01-25T01:16:46.212Z,17.43
2019-01-25T01:19:34.434Z,19.00
2019-01-25T01:22:22.370Z,18.47
2019-01-25T01:25:11.679Z,18.70
2019-01-25T01:27:59.621Z,18.33
2019-01-25T01:30:47.778Z,20.40
2019-01-25T01:33:35.663Z,18.40
2019-01-25T01:36:23.655Z,20.43
2019-01-25T01:39:11.773Z,18.57
2019-01-25T01:41:59.651Z,18.87
2019-01-25T01:44:47.648Z,18.50
2019-01-25T01:47:35.757Z,18.57
2019-01-25T01:50:23.362Z,18.60
2019-01-25T01:53:11.620Z,18.30
2019-01-25T01:55:59.212Z,21.40
2019-01-25T01:58:47.314Z,18.87
2019-01-25T02:01:35.054Z,19.30
2019-01-25T02:04:22.902Z,19.20
2019-01-25T02:07:11.213Z,19.63
2019-01-25T02:09:59.460Z,19.07
2019-01-25T02:12:47.030Z,19.83
2019-01-25T02:15:34.912Z,20.50
2019-01-25T02:18:22.543Z,19.97
2019-01-25T02:21:10.587Z,22.40
2019-01-25T02:23:58.405Z,20.20
2019-01-25T02:26:46.467Z,20.83
2019-01-25T02:29:34.442Z,20.47
2019-01-25T02:32:22.441Z,20.83
2019-01-25T02:35:10.597Z,18.50
2019-01-25T02:37:58.466Z,20.30
2019-01-25T02:40:46.474Z,20.03
2019-01-25T02:43:34.387Z,20.60
2019-01-25T02:46:22.487Z,20.73
2019-01-25T02:49:10.390Z,20.37
2019-01-25T02:51:58.083Z,19.40
2019-01-25T02:54:46.349Z,20.87
2019-01-25T02:57:34.547Z,21.03
2019-01-25T03:00:24.460Z,20.17
2019-01-25T03:03:12.080Z,20.00
2019-01-25T03:05:59.945Z,22.10
2019-01-25T03:08:48.393Z,22.67
2019-01-25T03:11:36.587Z,19.20
2019-01-25T03:14:24.746Z,19.17
2019-01-25T03:17:12.825Z,19.67
2019-01-25T03:20:00.847Z,19.93
2019-01-25T03:22:48.981Z,21.30
2019-01-25T03:25:36.932Z,19.97
2019-01-25T03:28:24.837Z,18.90
2019-01-25T03:31:12.945Z,18.40
2019-01-25T03:34:00.965Z,17.83
2019-01-25T03:36:48.752Z,19.20
2019-01-25T03:39:36.769Z,16.47
2019-01-25T03:42:25.151Z,18.63
2019-01-25T03:45:14.710Z,16.97
2019-01-25T03:48:02.765Z,17.80
2019-01-25T03:50:50.877Z,17.63
2019-01-25T03:53:38.728Z,17.73
2019-01-25T03:56:28.751Z,18.17
2019-01-25T03:59:16.551Z,17.73
2019-01-25T04:02:04.973Z,18.40
2019-01-25T04:04:52.900Z,17.53
2019-01-25T04:07:40.852Z,17.50
2019-01-25T04:10:29.772Z,17.20
2019-01-25T04:13:17.878Z,18.33
2019-01-25T04:16:06.266Z,18.40
2019-01-25T04:18:54.399Z,17.73
2019-01-25T04:21:42.546Z,17.53
2019-01-25T04:24:30.382Z,18.27
2019-01-25T04:27:18.229Z,17.40
2019-01-25T04:30:08.515Z,18.50
2019-01-25T04:32:56.413Z,17.90
2019-01-25T04:35:44.220Z,18.37
2019-01-25T04:38:32.146Z,17.80
2019-01-25T04:41:20.349Z,18.30
2019-01-25T04:44:08.559Z,18.57
2019-01-25T04:46:56.428Z,18.67
2019-01-25T04:49:44.419Z,18.03
2019-01-25T04:52:31.883Z,18.83
2019-01-25T04:55:28.520Z,18.47
2019-01-25T04:58:18.187Z,18.77
2019-01-25T05:01:10.639Z,17.60
2019-01-25T05:03:58.845Z,17.87
2019-01-25T05:06:47.018Z,17.50
2019-01-25T05:09:39.121Z,16.90
2019-01-25T05:12:27.231Z,15.93
2019-01-25T05:15:15.025Z,17.23
2019-01-25T05:18:02.568Z,18.40
2019-01-25T05:20:51.024Z,17.80
2019-01-25T05:23:38.741Z,16.87
2019-01-25T05:26:26.960Z,17.13
2019-01-25T05:29:14.511Z,16.93
2019-01-25T05:32:06.018Z,17.17
2019-01-25T05:34:53.929Z,17.10
2019-01-25T05:37:42.065Z,17.73
2019-01-25T05:40:30.428Z,17.20
2019-01-25T05:43:18.601Z,16.13
2019-01-25T05:46:06.807Z,16.43
2019-01-25T05:48:54.595Z,17.83
2019-01-25T05:51:42.844Z,15.90
2019-01-25T05:54:31.053Z,14.73
2019-01-25T05:57:19.016Z,20.23
2019-01-25T06:00:10.710Z,18.70
2019-01-25T06:03:05.572Z,18.47
2019-01-25T06:05:59.693Z,19.27
2019-01-25T06:08:47.499Z,18.50
2019-01-25T06:11:39.158Z,19.50
2019-01-25T06:14:27.492Z,19.90
2019-01-25T06:17:15.623Z,20.37
2019-01-25T06:20:04.148Z,22.27
2019-01-25T06:22:54.937Z,21.67
2019-01-25T06:25:42.597Z,21.07
2019-01-25T06:28:30.493Z,21.60
2019-01-25T06:31:20.524Z,19.23
2019-01-25T06:34:08.743Z,21.17
2019-01-25T06:36:56.502Z,20.67
2019-01-25T06:39:44.964Z,21.27
2019-01-25T06:42:32.864Z,20.50
2019-01-25T06:45:20.680Z,22.40
2019-01-25T06:48:09.145Z,21.97
2019-01-25T06:50:57.232Z,21.50
2019-01-25T06:53:44.937Z,21.53
2019-01-25T06:56:32.837Z,19.80
2019-01-25T06:59:23.901Z,18.27
2019-01-25T07:02:15.242Z,18.60
2019-01-25T07:05:03.124Z,18.83
2019-01-25T07:07:51.349Z,19.57
2019-01-25T07:10:39.694Z,18.00
2019-01-25T07:13:27.812Z,17.30
2019-01-25T07:16:16.005Z,19.07
2019-01-25T07:19:04.228Z,17.97
2019-01-25T07:21:52.421Z,17.83
2019-01-25T07:24:40.389Z,17.23
2019-01-25T07:27:28.099Z,18.37
2019-01-25T07:30:16.352Z,18.57
2019-01-25T07:33:04.497Z,18.47
2019-01-25T07:35:52.384Z,18.23
2019-01-25T07:38:40.456Z,19.53
2019-01-25T07:41:28.912Z,19.97
2019-01-25T07:44:17.185Z,19.07
2019-01-25T07:47:05.594Z,19.97
2019-01-25T07:49:53.455Z,18.47
2019-01-25T07:52:41.722Z,18.90
2019-01-25T07:55:29.761Z,21.57
2019-01-25T07:58:17.944Z,20.33
2019-01-25T08:01:06.092Z,19.43
2019-01-25T08:03:54.274Z,20.10
2019-01-25T08:06:42.364Z,21.40
2019-01-25T08:09:30.301Z,19.93
2019-01-25T08:12:18.464Z,18.90
2019-01-25T08:15:08.396Z,19.60
2019-01-25T08:17:56.013Z,18.20
2019-01-25T08:20:44.230Z,20.20
2019-01-25T08:23:32.095Z,21.80
2019-01-25T08:26:20.281Z,20.60
2019-01-25T08:29:08.259Z,20.70
2019-01-25T08:31:56.558Z,20.87
2019-01-25T08:34:44.657Z,22.03
2019-01-25T08:37:32.648Z,22.77
2019-01-25T08:40:20.906Z,22.87
2019-01-25T08:43:09.101Z,21.37
2019-01-25T08:45:56.806Z,21.57
2019-01-25T08:48:45.145Z,22.57
2019-01-25T08:51:33.125Z,21.90
2019-01-25T08:54:21.072Z,22.23
2019-01-25T08:57:09.114Z,21.57
2019-01-25T08:59:56.988Z,22.37
2019-01-25T09:02:44.977Z,23.43
2019-01-25T09:05:32.944Z,21.77
2019-01-25T09:08:20.771Z,22.33
2019-01-25T09:11:08.573Z,21.60
2019-01-25T09:13:56.556Z,22.93
2019-01-25T09:16:44.601Z,21.47
2019-01-25T09:19:32.136Z,22.10
2019-01-25T09:22:19.887Z,21.97
2019-01-25T09:25:08.423Z,21.17
2019-01-25T09:27:56.567Z,21.33
2019-01-25T09:30:44.074Z,20.77
2019-01-25T09:33:31.554Z,20.20
2019-01-25T09:36:19.545Z,21.70
2019-01-25T09:39:09.590Z,20.80
2019-01-25T09:41:57.592Z,20.00
2019-01-25T09:44:45.518Z,20.53
2019-01-25T09:47:33.434Z,20.43
2019-01-25T09:50:21.803Z,20.97
2019-01-25T09:53:09.620Z,21.33
2019-01-25T09:55:57.679Z,19.23
2019-01-25T09:58:47.253Z,19.80
2019-01-25T10:01:35.371Z,20.57
2019-01-25T10:04:23.668Z,18.93
2019-01-25T10:07:11.950Z,18.80
2019-01-25T10:09:59.932Z,20.80
2019-01-25T10:12:47.822Z,21.17
2019-01-25T10:15:35.532Z,20.53
2019-01-25T10:18:24.976Z,18.73
2019-01-25T10:21:12.616Z,20.63
2019-01-25T10:24:00.304Z,20.37
2019-01-25T10:26:48.406Z,19.33
2019-01-25T10:29:36.100Z,18.97
2019-01-25T10:32:24.418Z,20.47
2019-01-25T10:35:13.096Z,18.57
2019-01-25T10:38:01.273Z,19.73
2019-01-25T10:40:49.144Z,19.53
2019-01-25T10:43:36.703Z,21.97
2019-01-25T10:46:24.713Z,19.83
2019-01-25T10:49:13.165Z,20.67
2019-01-25T10:52:01.179Z,19.40
2019-01-25T10:54:49.284Z,19.70
2019-01-25T10:57:36.922Z,20.93
2019-01-25T11:00:25.102Z,20.17
2019-01-25T11:03:13.025Z,19.90
2019-01-25T11:06:01.368Z,19.90
2019-01-25T11:08:49.626Z,20.67
2019-01-25T11:11:37.868Z,19.53
2019-01-25T11:14:26.136Z,22.07
2019-01-25T11:17:14.147Z,20.23
2019-01-25T11:20:02.301Z,20.70
2019-01-25T11:22:50.608Z,20.53
2019-01-25T11:25:39.731Z,21.23
2019-01-25T11:28:27.884Z,20.47
2019-01-25T11:31:15.710Z,18.03
2019-01-25T11:34:03.561Z,19.93
2019-01-25T11:36:52.208Z,19.20
2019-01-25T11:39:40.350Z,16.77
2019-01-25T11:42:28.529Z,18.00
2019-01-25T11:45:16.510Z,17.97
2019-01-25T11:48:07.936Z,19.67
2019-01-25T11:50:56.029Z,17.97
2019-01-25T11:53:44.155Z,16.70
2019-01-25T11:56:32.039Z,18.23
2019-01-25T11:59:20.175Z,17.43
2019-01-25T12:02:08.649Z,17.37
2019-01-25T12:04:56.329Z,16.27
2019-01-25T12:07:44.287Z,16.47
2019-01-25T12:10:32.444Z,16.73
2019-01-25T12:13:20.006Z,15.17
2019-01-25T12:16:07.802Z,17.30
2019-01-25T12:18:55.922Z,16.53
2019-01-25T12:21:43.585Z,15.07
2019-01-25T12:24:32.550Z,15.43
2019-01-25T12:27:20.776Z,15.13
2019-01-25T12:30:14.533Z,13.33
2019-01-25T12:33:02.155Z,12.93
2019-01-25T12:35:50.139Z,13.73
2019-01-25T12:38:38.008Z,16.13
2019-01-25T12:41:26.158Z,14.00
2019-01-25T12:44:14.006Z,15.87
2019-01-25T12:47:02.068Z,15.87
2019-01-25T12:49:49.732Z,14.53
2019-01-25T12:52:37.830Z,15.60
2019-01-25T12:55:25.597Z,15.87
2019-01-25T12:58:13.466Z,15.23
2019-01-25T13:01:02.206Z,14.70
2019-01-25T13:03:50.729Z,14.83
2019-01-25T13:06:38.855Z,14.90
2019-01-25T13:09:27.089Z,13.47
2019-01-25T13:12:15.604Z,13.83
2019-01-25T13:15:05.324Z,14.70
2019-01-25T13:17:53.335Z,16.73
2019-01-25T13:20:43.181Z,14.73
2019-01-25T13:23:31.097Z,16.70
2019-01-25T13:26:18.900Z,14.90
2019-01-25T13:29:07.079Z,13.77
2019-01-25T13:31:55.216Z,15.43
2019-01-25T13:34:43.626Z,14.27
2019-01-25T13:37:31.827Z,13.87
2019-01-25T13:40:21.313Z,14.47
2019-01-25T13:43:09.437Z,15.07
2019-01-25T13:45:57.510Z,15.13
2019-01-25T13:48:45.382Z,14.87
2019-01-25T13:51:33.235Z,14.50
2019-01-25T13:54:21.412Z,14.07
2019-01-25T13:57:09.556Z,14.63
2019-01-25T13:59:57.697Z,13.67
2019-01-25T14:02:45.801Z,13.33
2019-01-25T14:05:33.842Z,16.23
2019-01-25T14:08:21.880Z,13.80
2019-01-25T14:11:10.467Z,14.30
2019-01-25T14:13:58.728Z,13.07
2019-01-25T14:16:46.802Z,13.97
2019-01-25T14:19:34.772Z,13.07
2019-01-25T14:22:22.965Z,12.47
2019-01-25T14:25:11.171Z,14.07
2019-01-25T14:27:59.138Z,13.70
2019-01-25T14:30:47.393Z,13.83
2019-01-25T14:33:35.203Z,13.30
2019-01-25T14:36:23.436Z,13.03
2019-01-25T14:39:11.522Z,13.27
2019-01-25T14:42:00.020Z,13.30
2019-01-25T14:44:48.100Z,12.40
2019-01-25T14:47:36.304Z,10.97
2019-01-25T14:50:24.983Z,13.43
2019-01-25T14:53:12.898Z,13.00
2019-01-25T14:56:01.191Z,12.53
2019-01-25T14:58:49.395Z,12.17
2019-01-25T15:01:36.975Z,11.10
2019-01-25T15:04:25.105Z,11.97
2019-01-25T15:07:12.757Z,12.07
2019-01-25T15:10:01.084Z,11.53
2019-01-25T15:12:49.595Z,12.00
2019-01-25T15:15:37.776Z,12.03
2019-01-25T15:18:26.246Z,11.37
2019-01-25T15:21:14.082Z,11.57
2019-01-25T15:24:02.078Z,11.53
2019-01-25T15:26:49.776Z,11.17
2019-01-25T15:29:37.975Z,10.83
2019-01-25T15:32:25.585Z,11.37
2019-01-25T15:35:14.414Z,11.50
2019-01-25T15:38:02.762Z,11.07
2019-01-25T15:40:50.795Z,12.37
2019-01-25T15:43:39.145Z,11.90
2019-01-25T15:46:27.569Z,10.70
2019-01-25T15:49:15.209Z,10.70
2019-01-25T15:52:03.360Z,10.47
2019-01-25T15:54:51.442Z,10.70
2019-01-25T15:57:39.331Z,11.27
2019-01-25T16:00:29.083Z,11.03
2019-01-25T16:03:17.423Z,11.27
2019-01-25T16:06:05.844Z,11.57
2019-01-25T16:08:53.313Z,12.17
2019-01-25T16:11:41.625Z,11.67
2019-01-25T16:14:29.511Z,12.27
2019-01-25T16:17:17.736Z,30.87
2019-01-25T16:20:07.591Z,14.27
2019-01-25T16:22:55.852Z,13.37
2019-01-25T16:25:43.918Z,11.63
2019-01-25T16:28:32.228Z,11.53
2019-01-25T16:31:20.574Z,10.80
2019-01-25T16:34:08.346Z,11.70
2019-01-25T16:36:55.892Z,12.70
2019-01-25T16:39:43.436Z,11.47
2019-01-25T16:42:31.348Z,10.93
2019-01-25T16:45:21.637Z,11.47
2019-01-25T16:48:09.598Z,11.30
2019-01-25T16:50:57.791Z,11.80
2019-01-25T16:53:45.483Z,11.93
2019-01-25T16:56:33.365Z,11.93
2019-01-25T16:59:21.006Z,10.73
2019-01-25T17:02:08.934Z,10.67
2019-01-25T17:04:56.856Z,11.73
2019-01-25T17:07:44.724Z,10.30
2019-01-25T17:10:32.743Z,10.17
2019-01-25T17:13:21.064Z,12.23
2019-01-25T17:16:09.482Z,11.77
2019-01-25T17:18:57.183Z,12.00
2019-01-25T17:21:45.259Z,11.33
2019-01-25T17:24:33.049Z,11.70
2019-01-25T17:27:20.847Z,11.53
2019-01-25T17:30:16.509Z,11.40
2019-01-25T17:33:04.689Z,11.23
2019-01-25T17:35:52.245Z,10.87
2019-01-25T17:38:40.416Z,11.13
2019-01-25T17:41:28.110Z,11.53
2019-01-25T17:44:16.141Z,11.10
2019-01-25T17:47:03.907Z,12.30
2019-01-25T17:49:54.871Z,11.97
2019-01-25T17:52:43.039Z,11.70
2019-01-25T17:55:30.909Z,12.47
2019-01-25T17:58:19.320Z,11.60
2019-01-25T18:01:07.312Z,11.17
2019-01-25T18:03:55.450Z,11.70
2019-01-25T18:06:42.991Z,12.50
2019-01-25T18:09:31.215Z,11.77
2019-01-25T18:12:19.156Z,12.20
2019-01-25T18:15:07.991Z,13.33
2019-01-25T18:17:56.236Z,12.83
2019-01-25T18:20:44.213Z,12.97
2019-01-25T18:23:32.439Z,11.90
2019-01-25T18:26:23.297Z,11.57
2019-01-25T18:29:17.696Z,12.17
2019-01-25T18:32:06.167Z,12.57
2019-01-25T18:34:54.167Z,10.93
2019-01-25T18:37:42.064Z,11.90
2019-01-25T18:40:30.159Z,9.77
2019-01-25T18:43:18.307Z,12.03
2019-01-25T18:46:06.530Z,11.37
2019-01-25T18:48:54.601Z,10.43
2019-01-25T18:51:42.704Z,11.83
2019-01-25T18:54:30.666Z,11.17
2019-01-25T18:57:18.344Z,11.10
2019-01-25T19:00:09.107Z,11.07
2019-01-25T19:02:56.933Z,10.70
2019-01-25T19:05:45.043Z,11.00
2019-01-25T19:08:32.991Z,9.93
2019-01-25T19:11:20.831Z,11.87
2019-01-25T19:14:09.060Z,10.33
2019-01-25T19:16:56.746Z,9.57
2019-01-25T19:19:45.014Z,10.47
2019-01-25T19:22:33.055Z,9.47
2019-01-25T19:25:21.279Z,9.27
2019-01-25T19:28:09.514Z,10.70
2019-01-25T19:30:57.643Z,10.20
2019-01-25T19:33:45.486Z,10.87
2019-01-25T19:36:33.730Z,10.77
2019-01-25T19:39:21.960Z,11.93
2019-01-25T19:42:10.284Z,10.20
2019-01-25T19:44:58.522Z,10.23
2019-01-25T19:47:46.717Z,9.70
2019-01-25T19:50:34.771Z,8.67
2019-01-25T19:53:23.688Z,8.10
2019-01-25T19:56:11.277Z,8.87
2019-01-25T19:58:59.288Z,7.93
2019-01-25T20:01:47.924Z,9.07
2019-01-25T20:04:36.205Z,8.13
2019-01-25T20:07:24.389Z,8.60
2019-01-25T20:10:12.439Z,9.57
2019-01-25T20:13:00.610Z,9.27
2019-01-25T20:15:48.307Z,9.37
2019-01-25T20:18:36.171Z,8.07
2019-01-25T20:21:23.693Z,8.53
2019-01-25T20:24:11.959Z,8.47
2019-01-25T20:27:00.210Z,8.50
2019-01-25T20:29:48.064Z,9.20
2019-01-25T20:32:35.633Z,8.53
2019-01-25T20:35:26.296Z,8.70
2019-01-25T20:38:14.505Z,9.83
2019-01-25T20:41:03.356Z,9.50
2019-01-25T20:43:51.388Z,9.63
2019-01-25T20:46:39.540Z,9.37
2019-01-25T20:49:27.498Z,9.17
2019-01-25T20:52:15.778Z,10.40
2019-01-25T20:55:04.568Z,9.43
2019-01-25T20:57:52.205Z,9.77
2019-01-25T21:00:40.803Z,10.23
2019-01-25T21:03:29.131Z,10.03
2019-01-25T21:06:17.389Z,10.03
2019-01-25T21:09:08.792Z,9.70
2019-01-25T21:11:56.779Z,9.40
2019-01-25T21:14:44.834Z,9.93
2019-01-25T21:17:32.941Z,9.80
2019-01-25T21:20:26.590Z,8.80
2019-01-25T21:23:14.907Z,10.07
2019-01-25T21:26:02.816Z,10.40
2019-01-25T21:28:51.191Z,9.63
2019-01-25T21:31:39.830Z,9.70
2019-01-25T21:34:28.763Z,9.80
2019-01-25T21:37:16.547Z,10.10
2019-01-25T21:40:08.660Z,9.40
2019-01-25T21:42:54.685Z,10.13
2019-01-25T21:45:43.480Z,10.27
2019-01-25T21:48:31.864Z,9.63
2019-01-25T21:51:19.825Z,10.33
2019-01-25T21:54:07.992Z,9.63
2019-01-25T21:56:56.383Z,10.17
2019-01-25T21:59:44.327Z,9.77
2019-01-25T22:02:32.648Z,9.23
2019-01-25T22:05:20.588Z,10.33
2019-01-25T22:08:08.817Z,10.13
2019-01-25T22:10:57.033Z,10.93
2019-01-25T22:13:52.635Z,10.77
2019-01-25T22:16:34.936Z,10.23
2019-01-25T22:19:23.335Z,10.87
2019-01-25T22:22:11.672Z,9.90
2019-01-25T22:25:00.175Z,10.00
2019-01-25T22:27:49.779Z,10.27
2019-01-25T22:30:37.624Z,9.57
2019-01-25T22:33:25.549Z,10.30
2019-01-25T22:36:13.758Z,10.03
2019-01-25T22:39:01.708Z,9.77
2019-01-25T22:41:49.906Z,9.47
2019-01-25T22:44:38.684Z,9.10
2019-01-25T22:47:26.806Z,9.57
2019-01-25T22:50:17.507Z,9.10
2019-01-25T22:53:06.111Z,9.60
2019-01-25T22:55:54.401Z,9.37
2019-01-25T22:58:42.033Z,8.50
2019-01-25T23:01:31.860Z,9.47
2019-01-25T23:05:10.310Z,8.57
2019-01-25T23:07:58.802Z,8.07
2019-01-25T23:10:46.685Z,8.67
2019-01-25T23:13:34.399Z,8.73
2019-01-25T23:16:22.447Z,8.30
2019-01-25T23:19:10.622Z,8.93
2019-01-25T23:21:58.526Z,9.60
2019-01-25T23:24:46.584Z,8.40
2019-01-25T23:27:34.443Z,8.93
2019-01-25T23:30:22.471Z,8.13
2019-01-25T23:33:10.121Z,8.20
2019-01-25T23:35:57.613Z,7.93
2019-01-25T23:38:45.512Z,8.13
2019-01-25T23:41:33.938Z,8.43
2019-01-25T23:44:21.700Z,8.30
2019-01-25T23:47:09.242Z,7.90
2019-01-25T23:49:57.160Z,7.80
2019-01-25T23:52:45.490Z,7.40
2019-01-25T23:55:33.306Z,7.60
2019-01-25T23:58:21.192Z,8.43
